Time;durP1;ratioP1;P1;durP2;ratioP2;P2;SDS_P1;SDS_P2;PMS_P1;PMS_P2;Temp;Humidity;BMP_temperature;BMP_pressure;BME280_temperature;BME280_humidity;BME280_pressure;Samples;Min_cycle;Max_cycle;Signal;HPM_P1;HPM_P2
2021/12/12 00:00:33;;;;;;;158.30;63.35;;;4.00;99.90;;;;;;4959092;28;20046;-88
2021/12/12 00:03:05;;;;;;;142.90;61.28;;;4.10;99.90;;;;;;4959473;28;20511;-90
2021/12/12 00:05:43;;;;;;;146.50;58.90;;;4.10;99.90;;;;;;4974860;28;20057;-88
2021/12/12 00:08:09;;;;;;;137.30;56.00;;;4.10;99.90;;;;;;4958443;28;20054;-88
2021/12/12 00:10:36;;;;;;;139.40;60.13;;;4.20;99.90;;;;;;4959140;28;20050;-89
2021/12/12 00:13:06;;;;;;;147.80;60.58;;;4.70;99.90;;;;;;4958976;28;20480;-89
2021/12/12 00:15:32;;;;;;;146.27;61.17;;;4.20;99.90;;;;;;4959556;28;20137;-89
2021/12/12 00:17:58;;;;;;;144.40;63.60;;;4.10;99.90;;;;;;4959943;28;20130;-88
2021/12/12 00:20:24;;;;;;;136.82;60.97;;;4.10;99.90;;;;;;4961357;28;20059;-88
2021/12/12 00:22:50;;;;;;;138.57;59.83;;;4.10;99.90;;;;;;4960343;28;20065;-88
2021/12/12 00:25:16;;;;;;;135.50;57.88;;;4.10;99.90;;;;;;4960042;28;20079;-88
2021/12/12 00:27:41;;;;;;;133.57;58.53;;;4.10;99.90;;;;;;4960012;28;20479;-88
2021/12/12 00:30:08;;;;;;;133.52;59.35;;;4.50;99.90;;;;;;4974357;28;20054;-89
2021/12/12 00:32:36;;;;;;;128.65;55.42;;;4.10;99.90;;;;;;4958629;28;20137;-89
2021/12/12 00:35:04;;;;;;;123.05;54.83;;;4.20;99.90;;;;;;4974185;28;20069;-89
2021/12/12 00:37:30;;;;;;;124.13;56.17;;;4.20;99.90;;;;;;4958330;28;20126;-87
2021/12/12 00:40:01;;;;;;;119.47;54.88;;;4.10;99.90;;;;;;4974477;28;20050;-84
2021/12/12 00:42:29;;;;;;;120.00;55.55;;;4.20;99.90;;;;;;4970511;28;20554;-88
2021/12/12 00:44:57;;;;;;;119.55;54.58;;;4.60;99.90;;;;;;4970746;28;20090;-85
2021/12/12 00:47:22;;;;;;;114.40;55.13;;;4.20;99.90;;;;;;4957976;28;20418;-89
2021/12/12 00:49:48;;;;;;;122.85;54.22;;;4.10;99.90;;;;;;4956952;28;20066;-88
2021/12/12 00:52:22;;;;;;;128.52;54.63;;;4.10;99.90;;;;;;4941313;28;20055;-88
2021/12/12 00:54:48;;;;;;;117.37;54.67;;;4.10;99.90;;;;;;4975254;28;20126;-88
2021/12/12 00:57:15;;;;;;;117.05;52.67;;;4.10;99.90;;;;;;4957412;28;20067;-88
2021/12/12 00:59:41;;;;;;;114.18;52.55;;;4.10;99.90;;;;;;4957960;28;20131;-89
2021/12/12 01:02:08;;;;;;;125.22;54.35;;;4.10;99.90;;;;;;4957693;28;20059;-88
2021/12/12 01:04:37;;;;;;;128.18;54.67;;;4.10;99.90;;;;;;4973630;28;20144;-88
2021/12/12 01:07:05;;;;;;;117.47;52.58;;;4.90;99.90;;;;;;4941388;28;20058;-88
2021/12/12 01:09:35;;;;;;;107.93;52.08;;;4.10;99.90;;;;;;4957985;28;20063;-88
2021/12/12 01:12:03;;;;;;;104.60;47.13;;;4.10;99.90;;;;;;4973224;28;20059;-87
2021/12/12 01:14:31;;;;;;;105.57;51.38;;;4.30;99.90;;;;;;4957692;28;20062;-88
2021/12/12 01:17:02;;;;;;;107.80;49.35;;;4.20;99.90;;;;;;4957328;28;20054;-86
2021/12/12 01:19:34;;;;;;;96.95;46.55;;;4.30;99.90;;;;;;4957561;28;20144;-88
2021/12/12 01:22:15;;;;;;;96.53;49.38;;;4.20;99.90;;;;;;4972944;28;20512;-86
2021/12/12 01:24:45;;;;;;;102.45;48.35;;;4.20;99.90;;;;;;4959100;28;20069;-89
2021/12/12 01:27:11;;;;;;;106.40;44.42;;;4.30;99.90;;;;;;4972933;28;20062;-88
2021/12/12 01:29:36;;;;;;;101.22;44.80;;;4.20;99.90;;;;;;4973405;28;20059;-89
2021/12/12 01:32:05;;;;;;;98.85;48.17;;;4.30;99.90;;;;;;4956530;28;20558;-85
2021/12/12 01:34:31;;;;;;;99.35;50.00;;;4.20;99.90;;;;;;4957509;28;20133;-89
2021/12/12 01:39:49;;;;;;;101.30;48.28;;;4.20;99.90;;;;;;4973345;28;20055;-88
2021/12/12 01:42:22;;;;;;;101.82;50.47;;;5.00;99.90;;;;;;4972370;28;20786;-89
2021/12/12 01:45:10;;;;;;;102.55;48.67;;;4.30;99.90;;;;;;4957238;28;20070;-88
2021/12/12 01:47:38;;;;;;;105.40;48.97;;;4.20;99.90;;;;;;4973198;28;20043;-88
2021/12/12 01:50:11;;;;;;;105.95;45.97;;;4.20;99.90;;;;;;4940297;28;20470;-85
2021/12/12 01:52:37;;;;;;;98.43;46.75;;;4.20;99.90;;;;;;4972206;28;20134;-88
2021/12/12 01:55:22;;;;;;;98.88;48.00;;;4.30;99.90;;;;;;4956666;28;20127;-86
2021/12/12 01:57:47;;;;;;;96.80;46.88;;;4.30;99.90;;;;;;4957462;28;20381;-89
2021/12/12 02:00:19;;;;;;;108.90;46.42;;;4.30;99.90;;;;;;4940175;28;20054;-87
2021/12/12 02:02:45;;;;;;;102.32;46.45;;;4.40;99.90;;;;;;4972651;28;20059;-89
2021/12/12 02:05:14;;;;;;;102.32;46.53;;;4.40;99.90;;;;;;4972110;28;20395;-87
2021/12/12 02:07:42;;;;;;;105.22;47.33;;;4.30;99.90;;;;;;4956240;28;20097;-88
2021/12/12 02:10:11;;;;;;;101.68;45.30;;;4.30;99.90;;;;;;4955989;28;20054;-87
2021/12/12 02:12:37;;;;;;;102.63;47.47;;;4.30;99.90;;;;;;4972453;28;20047;-86
2021/12/12 02:15:03;;;;;;;106.93;48.83;;;4.30;99.90;;;;;;4956121;28;20484;-87
2021/12/12 02:17:35;;;;;;;107.60;48.47;;;4.30;99.90;;;;;;4955309;28;20093;-86
2021/12/12 02:20:16;;;;;;;115.45;49.90;;;4.30;99.90;;;;;;4956485;28;20087;-86
2021/12/12 02:23:06;;;;;;;107.97;49.30;;;5.30;99.90;;;;;;4957867;28;20058;-88
2021/12/12 02:36:31;;;;;;;;;;;4.70;99.90;;;;;;4957888;28;20077;-86
2021/12/12 02:38:57;;;;;;;105.68;47.15;;;5.00;99.90;;;;;;4955573;28;20414;-85
2021/12/12 02:41:23;;;;;;;76.60;33.72;;;4.30;99.90;;;;;;4954844;28;20133;-88
2021/12/12 02:43:55;;;;;;;90.10;42.42;;;4.40;99.90;;;;;;4955033;28;20113;-88
2021/12/12 02:46:26;;;;;;;93.70;44.97;;;4.40;99.90;;;;;;4970786;28;20118;-87
2021/12/12 02:48:53;;;;;;;88.38;43.33;;;4.40;99.90;;;;;;4955639;28;20042;-88
2021/12/12 02:51:19;;;;;;;98.32;46.00;;;4.40;99.90;;;;;;4971884;28;20499;-85
2021/12/12 02:53:50;;;;;;;83.43;44.33;;;4.90;99.90;;;;;;4955306;28;20074;-86
2021/12/12 02:56:38;;;;;;;97.65;46.65;;;5.10;99.90;;;;;;4955220;28;20101;-87
2021/12/12 02:59:06;;;;;;;88.25;43.63;;;5.40;99.90;;;;;;4954267;28;20070;-87
2021/12/12 03:01:42;;;;;;;105.70;44.95;;;5.10;99.90;;;;;;4954686;28;20495;-87
2021/12/12 03:04:08;;;;;;;86.60;42.80;;;4.40;99.90;;;;;;4955376;28;20077;-87
2021/12/12 03:06:35;;;;;;;87.85;41.22;;;5.10;99.90;;;;;;4938420;28;20047;-88
2021/12/12 03:09:16;;;;;;;85.05;43.42;;;4.50;99.90;;;;;;4954845;28;20403;-87
2021/12/12 03:11:43;;;;;;;95.15;42.47;;;4.50;99.90;;;;;;4954602;28;20054;-87
2021/12/12 03:14:08;;;;;;;80.28;39.90;;;4.50;99.90;;;;;;4970997;28;20065;-86
2021/12/12 03:16:34;;;;;;;84.82;41.45;;;4.50;99.90;;;;;;4953951;28;20145;-87
2021/12/12 03:19:00;;;;;;;80.43;39.05;;;4.50;99.90;;;;;;4971020;28;20062;-87
2021/12/12 03:21:32;;;;;;;87.13;41.70;;;5.10;99.90;;;;;;4970528;28;20150;-87
2021/12/12 03:24:01;;;;;;;74.55;37.03;;;4.50;99.90;;;;;;4955320;28;20050;-87
2021/12/12 03:26:26;;;;;;;67.55;33.70;;;4.60;99.90;;;;;;4954454;28;20137;-86
2021/12/12 03:28:54;;;;;;;79.63;40.92;;;4.60;99.90;;;;;;4955029;28;20130;-86
2021/12/12 03:31:30;;;;;;;78.55;39.15;;;4.80;99.90;;;;;;4955123;28;20058;-86
2021/12/12 03:33:56;;;;;;;87.95;39.25;;;4.50;99.90;;;;;;4954887;28;20411;-87
2021/12/12 03:36:21;;;;;;;84.38;40.35;;;5.30;99.90;;;;;;4954184;28;20058;-86
2021/12/12 03:38:59;;;;;;;83.18;39.55;;;4.90;99.90;;;;;;4970775;28;20097;-87
2021/12/12 03:41:27;;;;;;;80.10;38.05;;;4.70;99.90;;;;;;4954143;28;20062;-87
2021/12/12 03:43:55;;;;;;;78.78;35.33;;;4.70;99.90;;;;;;4954734;28;20042;-87
2021/12/12 03:46:21;;;;;;;69.35;34.05;;;4.70;99.90;;;;;;4954073;28;20054;-87
2021/12/12 03:48:47;;;;;;;66.68;34.80;;;4.80;99.90;;;;;;4970223;28;20059;-87
2021/12/12 03:51:14;;;;;;;71.10;34.60;;;4.70;99.90;;;;;;4954955;28;20058;-87
2021/12/12 03:53:40;;;;;;;71.45;36.15;;;5.50;99.90;;;;;;4971329;28;20051;-87
2021/12/12 03:56:06;;;;;;;77.93;34.95;;;4.80;99.90;;;;;;4970751;28;20586;-86
2021/12/12 03:58:32;;;;;;;59.83;31.23;;;4.70;99.90;;;;;;4969989;28;20074;-87
2021/12/12 04:00:59;;;;;;;53.67;26.98;;;4.80;99.90;;;;;;4954977;28;20458;-86
2021/12/12 04:03:25;;;;;;;58.42;29.38;;;4.90;99.90;;;;;;4969878;28;20547;-86
2021/12/12 04:05:58;;;;;;;62.10;31.00;;;5.10;99.90;;;;;;4961019;28;20078;-86
2021/12/12 04:08:32;;;;;;;61.42;31.67;;;4.80;99.90;;;;;;4954977;28;20054;-87
2021/12/12 04:10:57;;;;;;;65.75;33.92;;;4.90;99.90;;;;;;4954566;28;20095;-86
2021/12/12 04:13:23;;;;;;;62.78;32.92;;;4.80;99.90;;;;;;4953654;28;20062;-87
2021/12/12 04:15:50;;;;;;;61.15;30.50;;;4.80;99.90;;;;;;4973038;28;20675;-87
2021/12/12 04:18:20;;;;;;;61.63;31.85;;;4.90;99.90;;;;;;4957917;28;20116;-87
2021/12/12 04:20:46;;;;;;;62.22;31.40;;;4.90;99.90;;;;;;4973828;28;20046;-87
2021/12/12 04:23:19;;;;;;;64.78;32.65;;;4.90;99.90;;;;;;4957991;28;20047;-86
2021/12/12 04:25:45;;;;;;;62.75;30.00;;;4.90;99.90;;;;;;4957621;28;20090;-86
2021/12/12 04:28:10;;;;;;;53.58;25.67;;;4.90;99.90;;;;;;4957779;28;20118;-86
2021/12/12 04:30:36;;;;;;;61.63;30.38;;;4.90;99.90;;;;;;4973044;28;20053;-85
2021/12/12 04:33:02;;;;;;;57.40;30.55;;;4.90;99.90;;;;;;4941835;28;20144;-87
2021/12/12 04:35:28;;;;;;;59.35;30.02;;;5.00;99.90;;;;;;4956969;28;20055;-85
2021/12/12 04:37:55;;;;;;;47.60;26.20;;;5.00;99.90;;;;;;4973771;28;20411;-85
2021/12/12 04:40:22;;;;;;;51.97;26.88;;;5.00;99.90;;;;;;4957686;28;20066;-87
2021/12/12 04:42:48;;;;;;;56.58;30.45;;;5.10;99.90;;;;;;4956910;28;20499;-88
2021/12/12 04:45:31;;;;;;;48.38;27.38;;;5.10;99.90;;;;;;4980769;28;20054;-87
2021/12/12 04:51:14;;;;;;;52.28;29.38;;;5.20;99.90;;;;;;4961437;28;20074;-86
2021/12/12 04:53:46;;;;;;;49.90;26.83;;;5.10;99.90;;;;;;4973713;28;20053;-86
2021/12/12 04:56:20;;;;;;;56.28;28.85;;;5.10;99.90;;;;;;4941329;28;20058;-85
2021/12/12 04:58:58;;;;;;;48.97;29.13;;;5.20;99.90;;;;;;4956873;28;20046;-86
2021/12/12 05:01:37;;;;;;;51.55;29.23;;;5.10;99.90;;;;;;4957287;28;20050;-84
2021/12/12 05:04:07;;;;;;;49.85;27.83;;;5.10;99.90;;;;;;4956910;28;20121;-86
2021/12/12 05:06:50;;;;;;;42.80;26.15;;;5.10;99.90;;;;;;4956730;28;20046;-86
2021/12/12 05:09:53;;;;;;;39.08;24.52;;;6.00;99.90;;;;;;4957153;28;20051;-86
2021/12/12 05:12:27;;;;;;;37.85;23.30;;;5.20;99.90;;;;;;4957292;28;20058;-85
2021/12/12 05:15:00;;;;;;;38.00;24.05;;;5.90;99.90;;;;;;4941427;28;20051;-85
2021/12/12 05:17:28;;;;;;;34.50;21.90;;;5.10;99.90;;;;;;4956749;28;20051;-83
2021/12/12 05:19:57;;;;;;;30.80;18.50;;;5.20;99.90;;;;;;4957196;28;20396;-84
2021/12/12 05:22:34;;;;;;;40.13;24.08;;;5.20;99.90;;;;;;4957099;28;20057;-84
2021/12/12 05:25:02;;;;;;;39.45;22.30;;;5.20;99.90;;;;;;4956682;28;20125;-83
2021/12/12 05:27:28;;;;;;;30.10;19.88;;;5.20;99.90;;;;;;4956682;28;20059;-83
2021/12/12 05:30:03;;;;;;;34.58;22.17;;;5.70;99.90;;;;;;4956013;28;20047;-85
2021/12/12 05:32:30;;;;;;;30.92;20.02;;;6.30;99.90;;;;;;4956266;28;20062;-84
2021/12/12 05:34:56;;;;;;;30.92;20.40;;;5.30;99.90;;;;;;4956369;28;20062;-85
2021/12/12 05:37:21;;;;;;;31.85;20.75;;;5.30;99.90;;;;;;4972464;28;20050;-85
2021/12/12 05:39:47;;;;;;;31.88;21.40;;;5.40;99.90;;;;;;4940000;28;20550;-85
2021/12/12 05:42:13;;;;;;;30.55;20.23;;;5.30;99.90;;;;;;4956304;28;20058;-85
2021/12/12 05:44:39;;;;;;;32.33;19.67;;;6.00;99.90;;;;;;4939544;28;20085;-86
2021/12/12 05:47:06;;;;;;;36.15;21.10;;;5.30;99.90;;;;;;4972439;28;20051;-85
2021/12/12 05:49:32;;;;;;;32.47;21.05;;;5.40;99.90;;;;;;4971702;28;20065;-85
2021/12/12 05:51:59;;;;;;;33.67;20.77;;;5.40;99.90;;;;;;4972091;28;20065;-85
2021/12/12 05:54:25;;;;;;;31.98;22.30;;;5.40;99.90;;;;;;4972329;28;20474;-84
2021/12/12 05:56:52;;;;;;;36.97;20.45;;;5.80;99.90;;;;;;4955593;28;20161;-85
2021/12/12 05:59:18;;;;;;;35.88;21.95;;;5.50;99.90;;;;;;4956142;28;20050;-86
2021/12/12 06:01:43;;;;;;;30.38;18.77;;;5.40;99.90;;;;;;4955799;28;20061;-86
2021/12/12 06:04:09;;;;;;;28.45;17.77;;;5.50;99.90;;;;;;4956222;28;20092;-87
2021/12/12 06:06:39;;;;;;;26.92;19.08;;;5.50;99.90;;;;;;4955546;28;20047;-84
2021/12/12 06:09:06;;;;;;;36.78;21.92;;;5.40;99.90;;;;;;4965133;28;20082;-86
2021/12/12 06:11:33;;;;;;;32.85;18.73;;;5.50;99.90;;;;;;4957344;28;20050;-87
2021/12/12 06:13:58;;;;;;;32.63;19.17;;;5.60;99.90;;;;;;4955702;28;20065;-86
2021/12/12 06:16:28;;;;;;;28.10;18.98;;;5.60;99.90;;;;;;4955883;28;20051;-85
2021/12/12 06:19:00;;;;;;;29.30;17.48;;;6.70;99.90;;;;;;4955122;28;20050;-87
2021/12/12 06:21:26;;;;;;;28.15;18.23;;;5.60;99.90;;;;;;4971744;28;20082;-91
2021/12/12 06:23:52;;;;;;;30.75;18.52;;;5.60;99.90;;;;;;4939578;28;20051;-89
2021/12/12 06:26:18;;;;;;;31.42;18.00;;;6.50;99.90;;;;;;4955627;28;20515;-86
2021/12/12 06:28:44;;;;;;;32.17;18.63;;;5.60;99.90;;;;;;4970504;28;20063;-86
2021/12/12 06:31:10;;;;;;;32.15;18.75;;;5.70;99.90;;;;;;4971973;28;20062;-84
2021/12/12 06:33:37;;;;;;;28.08;17.92;;;5.60;99.90;;;;;;4971819;28;20547;-86
2021/12/12 06:36:05;;;;;;;31.13;19.00;;;6.60;99.90;;;;;;4956464;28;20055;-89
2021/12/12 06:38:30;;;;;;;28.52;17.35;;;5.70;99.90;;;;;;4955863;28;20138;-88
2021/12/12 06:40:56;;;;;;;31.20;17.90;;;7.00;99.90;;;;;;4956085;28;20133;-86
2021/12/12 06:43:22;;;;;;;29.52;17.60;;;5.60;99.90;;;;;;4956335;28;20042;-88
2021/12/12 06:45:48;;;;;;;27.92;18.35;;;5.70;99.90;;;;;;4957016;28;20063;-87
2021/12/12 06:48:14;;;;;;;30.85;18.17;;;5.60;99.90;;;;;;4973071;28;20066;-87
2021/12/12 06:50:41;;;;;;;31.92;18.77;;;5.80;99.90;;;;;;4954526;28;20070;-86
2021/12/12 06:53:07;;;;;;;33.72;21.08;;;5.70;99.90;;;;;;4955270;28;20050;-88
2021/12/12 06:55:36;;;;;;;35.53;20.08;;;6.60;99.90;;;;;;4955024;28;20054;-88
2021/12/12 06:58:04;;;;;;;37.60;20.58;;;5.70;99.90;;;;;;4970676;28;20054;-87
2021/12/12 07:00:30;;;;;;;40.17;22.88;;;5.80;99.90;;;;;;4955079;28;20097;-87
2021/12/12 07:02:55;;;;;;;30.00;19.65;;;5.80;99.90;;;;;;4954698;28;20522;-87
2021/12/12 07:05:24;;;;;;;32.85;20.90;;;5.90;99.90;;;;;;4954980;28;20051;-86
2021/12/12 07:07:50;;;;;;;31.27;18.05;;;5.90;99.90;;;;;;4970812;28;20384;-88
2021/12/12 07:10:17;;;;;;;33.72;19.77;;;5.90;99.90;;;;;;4954862;28;20094;-88
2021/12/12 07:12:43;;;;;;;30.38;18.45;;;5.90;99.90;;;;;;4954166;28;20468;-85
2021/12/12 07:15:11;;;;;;;32.38;18.80;;;6.00;99.90;;;;;;4970978;28;20347;-87
2021/12/12 07:17:37;;;;;;;27.52;16.95;;;6.60;99.90;;;;;;4970624;28;20050;-85
2021/12/12 07:20:04;;;;;;;32.25;18.98;;;6.10;99.90;;;;;;4970077;28;20065;-83
2021/12/12 07:22:30;;;;;;;30.33;19.23;;;6.00;99.90;;;;;;4938815;28;20117;-84
2021/12/12 07:24:59;;;;;;;31.40;19.55;;;6.00;99.90;;;;;;4953984;28;20762;-85
2021/12/12 07:27:25;;;;;;;32.55;18.27;;;7.00;99.90;;;;;;4970625;28;20057;-83
2021/12/12 07:29:51;;;;;;;29.17;16.95;;;6.90;99.90;;;;;;4970202;28;20062;-83
2021/12/12 07:32:16;;;;;;;32.53;18.98;;;6.00;99.90;;;;;;4938801;28;20051;-83
2021/12/12 07:34:42;;;;;;;30.35;15.27;;;6.00;99.90;;;;;;4970911;28;20059;-83
2021/12/12 07:37:08;;;;;;;31.55;18.05;;;6.00;99.90;;;;;;4954218;28;20054;-84
2021/12/12 07:39:34;;;;;;;31.10;19.65;;;6.00;99.90;;;;;;4938869;28;20124;-83
2021/12/12 07:42:00;;;;;;;33.88;18.05;;;6.60;99.90;;;;;;4970158;28;20065;-84
2021/12/12 07:44:31;;;;;;;33.95;18.33;;;6.00;99.90;;;;;;4970347;28;20487;-84
2021/12/12 07:46:59;;;;;;;30.15;17.95;;;6.70;99.90;;;;;;4954308;28;20053;-84
2021/12/12 07:49:31;;;;;;;34.13;19.65;;;6.10;99.90;;;;;;4970449;28;20722;-83
2021/12/12 07:51:57;;;;;;;33.38;19.35;;;6.00;99.90;;;;;;4957789;28;20399;-83
2021/12/12 07:54:23;;;;;;;32.47;18.88;;;6.10;99.90;;;;;;4958617;28;20055;-84
2021/12/12 07:56:48;;;;;;;36.10;20.02;;;6.00;99.90;;;;;;4957824;28;20086;-83
2021/12/12 07:59:15;;;;;;;38.50;20.65;;;6.60;99.90;;;;;;4958395;28;20403;-84
2021/12/12 08:01:43;;;;;;;44.90;22.05;;;6.20;99.90;;;;;;4975540;28;20097;-83
2021/12/12 08:04:09;;;;;;;42.10;22.10;;;6.20;99.90;;;;;;4974778;28;20043;-84
2021/12/12 08:06:35;;;;;;;40.45;20.45;;;6.20;99.90;;;;;;4942167;28;20137;-84
2021/12/12 08:09:00;;;;;;;45.55;20.33;;;6.60;99.90;;;;;;4941423;28;20542;-84
2021/12/12 08:11:27;;;;;;;39.72;21.92;;;6.20;99.90;;;;;;4958057;28;20054;-83
2021/12/12 08:13:54;;;;;;;40.85;21.63;;;6.20;99.90;;;;;;4973574;28;20399;-83
2021/12/12 08:16:20;;;;;;;43.50;22.05;;;6.20;99.90;;;;;;4957607;28;20122;-83
2021/12/12 08:18:46;;;;;;;39.30;21.60;;;6.30;99.90;;;;;;4957867;28;20057;-84
2021/12/12 08:21:12;;;;;;;42.60;22.13;;;6.40;99.90;;;;;;4957074;28;20179;-84
2021/12/12 08:23:38;;;;;;;42.97;22.33;;;6.30;99.90;;;;;;4957661;28;20122;-84
2021/12/12 08:26:05;;;;;;;38.75;22.50;;;6.30;99.90;;;;;;4957029;28;20059;-82
2021/12/12 08:28:31;;;;;;;37.65;20.05;;;6.30;99.90;;;;;;4973563;28;20822;-83
2021/12/12 08:30:57;;;;;;;40.47;20.80;;;6.40;99.90;;;;;;4941357;28;20069;-84
2021/12/12 08:33:22;;;;;;;40.53;21.88;;;6.50;99.90;;;;;;4957666;28;20154;-84
2021/12/12 08:35:48;;;;;;;36.88;19.77;;;7.10;99.90;;;;;;4973579;28;20399;-85
2021/12/12 08:38:14;;;;;;;37.05;20.35;;;6.50;99.90;;;;;;4956880;28;20122;-84
2021/12/12 08:40:47;;;;;;;36.88;19.08;;;6.60;99.90;;;;;;4973783;28;20054;-85
2021/12/12 08:43:15;;;;;;;38.13;20.43;;;7.10;99.90;;;;;;4973255;28;20321;-83
2021/12/12 08:45:44;;;;;;;36.75;20.40;;;6.60;99.90;;;;;;4957246;28;20775;-84
2021/12/12 08:48:10;;;;;;;45.40;22.25;;;6.50;99.90;;;;;;4972790;28;20142;-83
2021/12/12 08:50:36;;;;;;;41.88;20.83;;;6.50;99.90;;;;;;4956743;28;20138;-83
2021/12/12 08:53:04;;;;;;;42.45;21.92;;;6.70;99.90;;;;;;4940882;28;20112;-84
2021/12/12 08:55:34;;;;;;;44.33;21.73;;;6.70;99.90;;;;;;4957102;28;20058;-84
2021/12/12 08:58:13;;;;;;;45.08;22.67;;;6.70;99.90;;;;;;4972679;28;20058;-84
2021/12/12 09:00:47;;;;;;;47.05;20.55;;;6.70;99.90;;;;;;4942238;28;20050;-84
2021/12/12 09:03:20;;;;;;;36.50;20.77;;;6.80;99.90;;;;;;4940345;28;20058;-83
2021/12/12 09:05:46;;;;;;;43.83;21.95;;;6.90;99.90;;;;;;4956823;28;20125;-83
2021/12/12 09:08:40;;;;;;;46.28;22.08;;;7.10;99.90;;;;;;4956352;28;20046;-84
2021/12/12 09:11:11;;;;;;;48.80;22.73;;;6.90;99.90;;;;;;4956423;28;20051;-82
2021/12/12 09:13:48;;;;;;;52.45;25.55;;;6.90;99.90;;;;;;4956853;28;20403;-84
2021/12/12 09:16:24;;;;;;;53.65;23.20;;;6.80;99.90;;;;;;4974749;28;20050;-83
2021/12/12 09:19:03;;;;;;;52.45;24.33;;;6.80;99.90;;;;;;4956975;28;20058;-84
2021/12/12 09:21:51;;;;;;;48.70;24.30;;;6.90;99.90;;;;;;4957344;28;20058;-83
2021/12/12 09:24:43;;;;;;;58.47;25.65;;;6.90;99.90;;;;;;4956937;28;20357;-82
2021/12/12 09:27:10;;;;;;;54.47;25.98;;;6.90;99.90;;;;;;4957555;28;20412;-84
2021/12/12 09:29:41;;;;;;;56.42;23.35;;;6.90;99.90;;;;;;4956813;28;20129;-83
2021/12/12 09:32:38;;;;;;;56.65;23.98;;;7.00;99.90;;;;;;4956118;28;20047;-81
2021/12/12 09:35:13;;;;;;;51.92;25.08;;;7.10;99.90;;;;;;4965199;28;20487;-82
2021/12/12 09:37:42;;;;;;;60.20;26.80;;;7.10;99.90;;;;;;4973716;28;20087;-83
2021/12/12 09:40:17;;;;;;;66.70;27.73;;;7.20;99.90;;;;;;4955930;28;20074;-82
2021/12/12 09:42:54;;;;;;;59.50;27.55;;;7.20;99.90;;;;;;4973313;28;20047;-83
2021/12/12 09:45:37;;;;;;;73.53;28.17;;;7.20;99.90;;;;;;4971708;28;20122;-82
2021/12/12 09:51:39;;;;;;;79.40;29.08;;;7.30;99.90;;;;;;4971844;28;20058;-82
2021/12/12 09:54:23;;;;;;;76.78;29.42;;;7.40;99.90;;;;;;4931393;29;20514;-81
2021/12/12 09:57:14;;;;;;;71.95;28.05;;;7.50;99.90;;;;;;4916421;29;20056;-81
2021/12/12 10:00:06;;;;;;;79.25;29.45;;;7.50;99.90;;;;;;4962987;28;20067;-81
2021/12/12 10:03:05;;;;;;;77.32;28.58;;;7.60;99.90;;;;;;4971890;28;20101;-81
2021/12/12 10:05:41;;;;;;;72.43;29.52;;;7.70;99.90;;;;;;4972060;28;20486;-81
2021/12/12 10:08:34;;;;;;;99.70;33.10;;;7.60;99.90;;;;;;4971231;28;20058;-81
2021/12/12 10:11:06;;;;;;;87.78;31.55;;;7.70;99.90;;;;;;4972320;28;20189;-82
2021/12/12 10:13:33;;;;;;;78.18;29.80;;;7.70;99.90;;;;;;4955046;28;20055;-83
2021/12/12 10:16:05;;;;;;;89.72;31.05;;;7.80;99.90;;;;;;4955830;28;20109;-83
2021/12/12 10:18:41;;;;;;;84.72;30.23;;;7.80;99.90;;;;;;4972051;28;20062;-82
2021/12/12 10:21:13;;;;;;;79.03;29.15;;;8.00;99.90;;;;;;4955126;28;20051;-81
2021/12/12 10:23:57;;;;;;;85.15;29.92;;;7.90;99.90;;;;;;4972394;28;20061;-82
2021/12/12 10:26:35;;;;;;;87.32;29.63;;;7.90;99.90;;;;;;4971318;28;20043;-82
2021/12/12 10:29:12;;;;;;;59.90;22.83;;;8.00;99.90;;;;;;4939621;28;20051;-82
2021/12/12 10:31:49;;;;;;;83.18;29.58;;;8.10;99.90;;;;;;4955397;28;20114;-82
2021/12/12 10:34:20;;;;;;;72.78;28.50;;;8.10;99.90;;;;;;4938737;28;20432;-82
2021/12/12 10:37:15;;;;;;;75.43;27.20;;;8.10;99.90;;;;;;4955510;28;20230;-82
2021/12/12 10:39:44;;;;;;;64.45;25.13;;;8.20;99.90;;;;;;4957874;28;20096;-83
2021/12/12 10:42:15;;;;;;;66.68;26.67;;;8.30;99.90;;;;;;4955487;28;20146;-83
2021/12/12 10:44:48;;;;;;;56.30;23.15;;;8.30;99.90;;;;;;4955639;28;20081;-83
2021/12/12 10:47:38;;;;;;;81.60;29.75;;;8.30;99.90;;;;;;4955110;28;20047;-84
2021/12/12 10:50:11;;;;;;;71.82;25.77;;;8.20;99.90;;;;;;4916943;29;20059;-83
2021/12/12 10:52:38;;;;;;;72.47;28.00;;;8.30;99.90;;;;;;4953011;29;20069;-83
2021/12/12 10:55:08;;;;;;;70.35;27.00;;;8.20;99.90;;;;;;4952035;29;20051;-82
2021/12/12 10:57:36;;;;;;;62.55;23.80;;;8.30;99.90;;;;;;4952207;29;20063;-82
2021/12/12 11:00:10;;;;;;;68.82;27.20;;;8.30;99.90;;;;;;4951953;29;20051;-82
2021/12/12 11:03:04;;;;;;;73.53;29.00;;;8.40;99.90;;;;;;4952122;29;20461;-82
2021/12/12 11:06:01;;;;;;;63.40;24.73;;;8.40;99.90;;;;;;4951611;29;20094;-82
2021/12/12 11:08:47;;;;;;;75.15;28.63;;;8.40;99.90;;;;;;4944227;29;20069;-83
2021/12/12 11:11:16;;;;;;;67.05;27.13;;;8.40;99.90;;;;;;4935603;29;20058;-85
2021/12/12 11:13:58;;;;;;;56.70;24.83;;;8.50;99.90;;;;;;4951879;29;20132;-85
2021/12/12 11:16:42;;;;;;;65.32;27.23;;;8.50;99.90;;;;;;4951801;29;20492;-85
2021/12/12 11:19:13;;;;;;;68.47;26.17;;;8.50;99.90;;;;;;4935932;29;20477;-85
2021/12/12 11:21:47;;;;;;;65.50;27.25;;;8.50;99.90;;;;;;4936389;29;20087;-86
2021/12/12 11:24:23;;;;;;;61.67;26.08;;;8.50;99.90;;;;;;4951112;28;20047;-86
2021/12/12 11:27:23;;;;;;;53.83;24.08;;;8.50;99.90;;;;;;4951830;29;20125;-84
2021/12/12 11:29:56;;;;;;;52.97;23.55;;;8.50;99.90;;;;;;4934998;29;20079;-85
2021/12/12 11:32:25;;;;;;;59.77;24.30;;;8.60;99.90;;;;;;4952343;28;20092;-84
2021/12/12 11:34:52;;;;;;;51.38;23.67;;;8.70;99.90;;;;;;4951215;29;20131;-85
2021/12/12 11:37:33;;;;;;;49.00;23.95;;;8.70;99.90;;;;;;4920308;29;20538;-83
2021/12/12 11:40:22;;;;;;;52.33;24.65;;;8.80;99.90;;;;;;4951681;29;20121;-84
2021/12/12 11:43:17;;;;;;;52.22;24.88;;;8.90;99.90;;;;;;4935552;29;20432;-84
2021/12/12 11:46:29;;;;;;;58.22;24.42;;;8.80;99.90;;;;;;4951238;29;20403;-82
2021/12/12 11:49:03;;;;;;;53.70;22.67;;;8.80;99.90;;;;;;4938997;28;20098;-81
2021/12/12 11:51:49;;;;;;;51.93;23.60;;;8.90;99.90;;;;;;4970037;28;20059;-82
2021/12/12 11:54:37;;;;;;;54.13;24.05;;;8.80;99.90;;;;;;4970118;28;20403;-81
2021/12/12 11:57:11;;;;;;;51.13;23.05;;;8.70;99.90;;;;;;4970746;28;20411;-81
2021/12/12 11:59:59;;;;;;;55.88;23.60;;;8.90;99.90;;;;;;4970078;28;20043;-81
2021/12/12 12:02:45;;;;;;;57.60;23.90;;;8.90;99.90;;;;;;4954378;28;20608;-82
2021/12/12 12:05:15;;;;;;;59.03;23.80;;;8.90;99.90;;;;;;4970419;28;20130;-82
2021/12/12 12:08:02;;;;;;;69.55;26.45;;;8.90;99.90;;;;;;4969818;28;20051;-82
2021/12/12 12:10:41;;;;;;;63.50;25.67;;;8.90;99.90;;;;;;4977530;28;20061;-83
2021/12/12 12:13:40;;;;;;;60.55;24.17;;;8.90;99.90;;;;;;4954359;28;20373;-83
2021/12/12 12:16:24;;;;;;;53.53;22.35;;;8.90;99.90;;;;;;4972191;28;20380;-81
2021/12/12 12:19:07;;;;;;;64.40;25.73;;;9.00;99.90;;;;;;4970292;28;20105;-83
2021/12/12 12:21:41;;;;;;;65.13;24.90;;;9.00;99.90;;;;;;4953419;28;20059;-80
2021/12/12 12:24:22;;;;;;;68.28;25.50;;;9.00;99.90;;;;;;4970046;28;20047;-80
2021/12/12 12:27:03;;;;;;;66.68;25.02;;;9.00;99.90;;;;;;4970723;28;20055;-81
2021/12/12 12:29:31;;;;;;;59.78;24.20;;;9.10;99.90;;;;;;4970171;28;20502;-82
2021/12/12 12:32:34;;;;;;;54.33;21.27;;;9.10;99.90;;;;;;4971536;28;20093;-82
2021/12/12 12:35:21;;;;;;;70.60;25.90;;;9.50;99.90;;;;;;4970130;28;20051;-82
2021/12/12 12:38:25;;;;;;;65.32;24.33;;;9.20;99.90;;;;;;4974069;28;20051;-82
2021/12/12 12:41:47;;;;;;;66.38;24.92;;;9.20;99.90;;;;;;4973804;28;20082;-82
2021/12/12 12:44:35;;;;;;;55.15;23.15;;;9.20;99.90;;;;;;4972974;28;20509;-81
2021/12/12 12:47:38;;;;;;;61.00;24.55;;;9.20;99.90;;;;;;4974677;28;20188;-81
2021/12/12 12:50:31;;;;;;;62.40;24.38;;;9.20;99.90;;;;;;4973095;28;20058;-82
2021/12/12 12:53:18;;;;;;;56.92;23.50;;;9.20;99.90;;;;;;4973677;28;20066;-81
2021/12/12 12:56:21;;;;;;;62.97;23.30;;;9.30;99.90;;;;;;4957030;28;20123;-81
2021/12/12 12:59:05;;;;;;;66.95;26.17;;;9.40;99.90;;;;;;4972980;28;20055;-81
2021/12/12 13:01:34;;;;;;;;;;;9.40;99.90;;;;;;4974480;28;20051;-81
2021/12/12 13:04:22;;;;;;;58.63;22.92;;;9.40;99.90;;;;;;4973399;28;19922;-81
2021/12/12 13:07:23;;;;;;;75.05;27.98;;;9.40;99.90;;;;;;4972802;28;20566;-81
2021/12/12 13:09:59;;;;;;;65.90;23.80;;;9.40;99.90;;;;;;4974360;28;20054;-80
2021/12/12 13:12:47;;;;;;;63.53;24.60;;;9.40;99.90;;;;;;4972942;28;20388;-80
2021/12/12 13:15:45;;;;;;;71.07;27.65;;;9.40;99.90;;;;;;4973324;28;20065;-81
2021/12/12 13:18:20;;;;;;;63.50;24.70;;;9.40;99.90;;;;;;4972991;28;20211;-81
2021/12/12 13:21:11;;;;;;;67.15;25.70;;;9.50;99.90;;;;;;4972801;28;20086;-81
2021/12/12 13:23:47;;;;;;;73.35;28.23;;;9.50;99.90;;;;;;4956516;28;20039;-81